Hobart, OK (73651)

8:02 AM CDT on August 26, 2016 (GMT -0500)
Hobart OK | | Change Station

Elev 1572 ft 35.03 °N, 99.10 °W | Updated 11 minutes ago

Clear
Clear
66.6 °F
Feels Like 66.6 °F
N
4.2
Wind Variable Wind from NNE

Today
High -- | Low -- °F
--% Chance of Precip.
Yesterday
High -- | Low -- °F
Precip. -- in
Pressure 30.04 in
Visibility 6.0 miles
Clouds Clear
Dew Point 64 °F
Humidity 91%
Rainfall 0.03 in
Snow Depth Not available.
7:05 AM 8:10 PM
Waning Crescent, 35% visible
METAR KHBR 261253Z AUTO 06007KT 6SM BR CLR 19/18 A3008 RMK AO2 SLP170 T01940183
Pressure 30.04 in
Visibility 6.0 miles
Clouds Clear
Dew Point 64 °F
Humidity 91%
Rainfall 0.03 in
Snow Depth Not available.
7:05 AM 8:10 PM
Waning Crescent, 35% visible
METAR KHBR 261253Z AUTO 06007KT 6SM BR CLR 19/18 A3008 RMK AO2 SLP170 T01940183

10-Day Weather Forecast

Almanac

Astronomy

Aug. 26, 2016 Rise Set
Actual Time
Civil Twilight
Nautical Twilight
Astronomical Twilight
Moon
Length of Visible Light
Length of Day
Tomorrow will be .
, % of the Moon is Illuminated

Today's Extremes

State Highs State Lows

Community

WunderPhotos

Upload Photos

1,935,082 photos uploaded!

WunderBlog® & News

Nearby

Air Quality

  Air Quality AQ Index Pollutant
Not available.

Snow Depth

Station Depth Elevation

Earthquake Activity

City Distance Mag. Time & Date
Minimum magnitude displayed is 2.5.

Coastal Water Temperatures

Place Temperature

Stations

Nearby Weather Stations

Station Location Temp. Windchill Dew Point Humidity Wind Precip. Elev Updated Type
                   

Watches & Warnings

There are currently no watches in effect.